sensor_id;sensor_type;location;lat;lon;timestamp;P1;durP1;ratioP1;P2;durP2;ratioP2
37593;SDS011;23441;50.856;6.076;2022-10-31T00:01:55;20.73;;;11.25;;
37593;SDS011;23441;50.856;6.076;2022-10-31T00:04:21;23.75;;;12.45;;
37593;SDS011;23441;50.856;6.076;2022-10-31T00:06:47;23.85;;;12.45;;
37593;SDS011;23441;50.856;6.076;2022-10-31T00:09:13;26.58;;;12.50;;
37593;SDS011;23441;50.856;6.076;2022-10-31T00:11:38;29.88;;;13.48;;
37593;SDS011;23441;50.856;6.076;2022-10-31T00:14:04;25.60;;;14.18;;
37593;SDS011;23441;50.856;6.076;2022-10-31T00:16:30;20.58;;;12.75;;
37593;SDS011;23441;50.856;6.076;2022-10-31T00:18:57;24.95;;;13.93;;
37593;SDS011;23441;50.856;6.076;2022-10-31T00:21:25;29.15;;;15.48;;
37593;SDS011;23441;50.856;6.076;2022-10-31T00:23:51;29.35;;;14.63;;
37593;SDS011;23441;50.856;6.076;2022-10-31T00:26:17;26.45;;;14.65;;
37593;SDS011;23441;50.856;6.076;2022-10-31T00:28:43;27.35;;;15.45;;
37593;SDS011;23441;50.856;6.076;2022-10-31T00:31:09;29.83;;;14.18;;
37593;SDS011;23441;50.856;6.076;2022-10-31T00:33:36;27.27;;;14.30;;
37593;SDS011;23441;50.856;6.076;2022-10-31T00:36:04;25.08;;;14.20;;
37593;SDS011;23441;50.856;6.076;2022-10-31T00:38:31;32.55;;;14.68;;
37593;SDS011;23441;50.856;6.076;2022-10-31T00:40:56;27.30;;;13.60;;
37593;SDS011;23441;50.856;6.076;2022-10-31T00:43:22;27.95;;;13.57;;
37593;SDS011;23441;50.856;6.076;2022-10-31T00:45:48;26.08;;;13.38;;
37593;SDS011;23441;50.856;6.076;2022-10-31T00:48:14;25.52;;;14.02;;
37593;SDS011;23441;50.856;6.076;2022-10-31T00:50:41;24.95;;;12.25;;
37593;SDS011;23441;50.856;6.076;2022-10-31T00:53:07;28.65;;;12.80;;
37593;SDS011;23441;50.856;6.076;2022-10-31T00:55:33;26.60;;;13.52;;
37593;SDS011;23441;50.856;6.076;2022-10-31T00:57:59;27.45;;;13.88;;
37593;SDS011;23441;50.856;6.076;2022-10-31T01:00:25;23.30;;;12.80;;
37593;SDS011;23441;50.856;6.076;2022-10-31T01:02:50;23.05;;;12.25;;
37593;SDS011;23441;50.856;6.076;2022-10-31T01:05:16;22.95;;;11.93;;
37593;SDS011;23441;50.856;6.076;2022-10-31T01:07:42;20.63;;;11.75;;
37593;SDS011;23441;50.856;6.076;2022-10-31T01:10:08;23.35;;;12.10;;
37593;SDS011;23441;50.856;6.076;2022-10-31T01:12:39;24.75;;;12.40;;
37593;SDS011;23441;50.856;6.076;2022-10-31T01:15:09;22.48;;;12.73;;
37593;SDS011;23441;50.856;6.076;2022-10-31T01:17:36;20.63;;;12.38;;
37593;SDS011;23441;50.856;6.076;2022-10-31T01:20:03;24.65;;;12.70;;
37593;SDS011;23441;50.856;6.076;2022-10-31T01:22:30;22.70;;;12.10;;
37593;SDS011;23441;50.856;6.076;2022-10-31T01:24:56;22.90;;;12.00;;
37593;SDS011;23441;50.856;6.076;2022-10-31T01:27:21;18.55;;;12.13;;
37593;SDS011;23441;50.856;6.076;2022-10-31T01:29:47;24.08;;;11.95;;
37593;SDS011;23441;50.856;6.076;2022-10-31T01:32:13;23.20;;;13.07;;
37593;SDS011;23441;50.856;6.076;2022-10-31T01:34:38;20.83;;;13.10;;
37593;SDS011;23441;50.856;6.076;2022-10-31T01:37:04;22.80;;;12.40;;
37593;SDS011;23441;50.856;6.076;2022-10-31T01:39:30;20.85;;;13.10;;
37593;SDS011;23441;50.856;6.076;2022-10-31T01:41:55;25.15;;;12.65;;
37593;SDS011;23441;50.856;6.076;2022-10-31T01:46:57;27.92;;;13.13;;
37593;SDS011;23441;50.856;6.076;2022-10-31T01:49:51;22.15;;;12.77;;
37593;SDS011;23441;50.856;6.076;2022-10-31T01:52:27;23.08;;;12.30;;
37593;SDS011;23441;50.856;6.076;2022-10-31T01:54:57;26.20;;;12.18;;
37593;SDS011;23441;50.856;6.076;2022-10-31T01:57:37;29.35;;;14.00;;
37593;SDS011;23441;50.856;6.076;2022-10-31T02:00:08;17.88;;;11.60;;
37593;SDS011;23441;50.856;6.076;2022-10-31T02:02:35;23.30;;;13.18;;
37593;SDS011;23441;50.856;6.076;2022-10-31T02:05:01;24.85;;;11.90;;
37593;SDS011;23441;50.856;6.076;2022-10-31T02:07:34;21.70;;;12.55;;
37593;SDS011;23441;50.856;6.076;2022-10-31T02:10:04;29.38;;;13.13;;
37593;SDS011;23441;50.856;6.076;2022-10-31T02:12:30;21.08;;;11.88;;
37593;SDS011;23441;50.856;6.076;2022-10-31T02:14:57;20.48;;;12.27;;
37593;SDS011;23441;50.856;6.076;2022-10-31T02:17:24;23.10;;;11.32;;
37593;SDS011;23441;50.856;6.076;2022-10-31T02:33:23;19.00;;;10.00;;
37593;SDS011;23441;50.856;6.076;2022-10-31T02:36:00;17.42;;;9.30;;
37593;SDS011;23441;50.856;6.076;2022-10-31T02:38:45;15.05;;;9.25;;
37593;SDS011;23441;50.856;6.076;2022-10-31T02:41:34;24.15;;;9.85;;
37593;SDS011;23441;50.856;6.076;2022-10-31T02:47:12;16.58;;;10.02;;
37593;SDS011;23441;50.856;6.076;2022-10-31T02:52:26;19.88;;;10.68;;
37593;SDS011;23441;50.856;6.076;2022-10-31T02:54:53;25.50;;;11.73;;
37593;SDS011;23441;50.856;6.076;2022-10-31T02:57:24;25.92;;;10.93;;
37593;SDS011;23441;50.856;6.076;2022-10-31T03:00:06;19.25;;;10.82;;
37593;SDS011;23441;50.856;6.076;2022-10-31T03:02:44;25.40;;;11.10;;
37593;SDS011;23441;50.856;6.076;2022-10-31T03:05:21;22.75;;;11.30;;
37593;SDS011;23441;50.856;6.076;2022-10-31T03:16:58;18.98;;;9.43;;
37593;SDS011;23441;50.856;6.076;2022-10-31T03:19:28;16.90;;;9.23;;
37593;SDS011;23441;50.856;6.076;2022-10-31T03:24:35;22.77;;;9.82;;
37593;SDS011;23441;50.856;6.076;2022-10-31T03:27:04;16.40;;;9.38;;
37593;SDS011;23441;50.856;6.076;2022-10-31T03:29:33;22.45;;;9.40;;
37593;SDS011;23441;50.856;6.076;2022-10-31T03:32:03;22.48;;;10.18;;
37593;SDS011;23441;50.856;6.076;2022-10-31T03:34:33;17.02;;;8.88;;
37593;SDS011;23441;50.856;6.076;2022-10-31T03:37:04;18.38;;;9.25;;
37593;SDS011;23441;50.856;6.076;2022-10-31T03:39:34;15.20;;;9.27;;
37593;SDS011;23441;50.856;6.076;2022-10-31T03:42:09;16.65;;;9.13;;
37593;SDS011;23441;50.856;6.076;2022-10-31T03:44:41;17.67;;;9.57;;
37593;SDS011;23441;50.856;6.076;2022-10-31T03:47:12;17.83;;;9.00;;
37593;SDS011;23441;50.856;6.076;2022-10-31T03:49:38;20.40;;;9.30;;
37593;SDS011;23441;50.856;6.076;2022-10-31T03:57:24;15.80;;;9.27;;
37593;SDS011;23441;50.856;6.076;2022-10-31T04:00:05;13.77;;;8.90;;
37593;SDS011;23441;50.856;6.076;2022-10-31T04:02:38;17.88;;;9.20;;
37593;SDS011;23441;50.856;6.076;2022-10-31T04:05:06;18.05;;;8.95;;
37593;SDS011;23441;50.856;6.076;2022-10-31T04:07:36;27.27;;;10.45;;
37593;SDS011;23441;50.856;6.076;2022-10-31T04:10:07;16.83;;;8.85;;
37593;SDS011;23441;50.856;6.076;2022-10-31T04:12:36;13.70;;;9.00;;
37593;SDS011;23441;50.856;6.076;2022-10-31T04:15:04;23.42;;;10.32;;
37593;SDS011;23441;50.856;6.076;2022-10-31T04:17:33;17.02;;;8.77;;
37593;SDS011;23441;50.856;6.076;2022-10-31T04:20:02;17.88;;;9.02;;
37593;SDS011;23441;50.856;6.076;2022-10-31T04:22:29;20.77;;;9.73;;
37593;SDS011;23441;50.856;6.076;2022-10-31T04:24:54;19.33;;;9.10;;
37593;SDS011;23441;50.856;6.076;2022-10-31T04:27:20;21.08;;;9.98;;
37593;SDS011;23441;50.856;6.076;2022-10-31T04:29:46;18.30;;;9.55;;
37593;SDS011;23441;50.856;6.076;2022-10-31T04:32:12;16.27;;;9.18;;
37593;SDS011;23441;50.856;6.076;2022-10-31T04:34:37;17.35;;;10.13;;
37593;SDS011;23441;50.856;6.076;2022-10-31T04:37:03;20.92;;;10.18;;
37593;SDS011;23441;50.856;6.076;2022-10-31T04:39:29;23.73;;;10.65;;
37593;SDS011;23441;50.856;6.076;2022-10-31T04:41:54;22.17;;;10.45;;
37593;SDS011;23441;50.856;6.076;2022-10-31T04:44:20;17.98;;;10.65;;
37593;SDS011;23441;50.856;6.076;2022-10-31T04:46:46;18.70;;;10.23;;
37593;SDS011;23441;50.856;6.076;2022-10-31T04:49:12;15.27;;;9.45;;
37593;SDS011;23441;50.856;6.076;2022-10-31T04:51:38;25.20;;;11.00;;
37593;SDS011;23441;50.856;6.076;2022-10-31T04:54:03;24.52;;;10.40;;
37593;SDS011;23441;50.856;6.076;2022-10-31T04:56:29;24.23;;;10.73;;
37593;SDS011;23441;50.856;6.076;2022-10-31T04:58:55;19.42;;;10.70;;
37593;SDS011;23441;50.856;6.076;2022-10-31T05:01:20;19.77;;;10.30;;
37593;SDS011;23441;50.856;6.076;2022-10-31T05:03:46;19.13;;;10.95;;
37593;SDS011;23441;50.856;6.076;2022-10-31T05:06:12;19.65;;;10.52;;
37593;SDS011;23441;50.856;6.076;2022-10-31T05:08:37;22.45;;;11.15;;
37593;SDS011;23441;50.856;6.076;2022-10-31T05:11:03;20.38;;;10.60;;
37593;SDS011;23441;50.856;6.076;2022-10-31T05:13:29;18.30;;;10.45;;
37593;SDS011;23441;50.856;6.076;2022-10-31T05:15:55;19.60;;;10.80;;
37593;SDS011;23441;50.856;6.076;2022-10-31T05:18:21;22.05;;;11.10;;
37593;SDS011;23441;50.856;6.076;2022-10-31T05:20:47;16.13;;;10.20;;
37593;SDS011;23441;50.856;6.076;2022-10-31T05:23:13;22.50;;;10.88;;
37593;SDS011;23441;50.856;6.076;2022-10-31T05:25:39;22.98;;;11.07;;
37593;SDS011;23441;50.856;6.076;2022-10-31T05:28:05;21.20;;;10.45;;
37593;SDS011;23441;50.856;6.076;2022-10-31T05:30:32;25.38;;;10.63;;
37593;SDS011;23441;50.856;6.076;2022-10-31T05:32:59;15.55;;;9.40;;
37593;SDS011;23441;50.856;6.076;2022-10-31T05:35:26;20.25;;;10.43;;
37593;SDS011;23441;50.856;6.076;2022-10-31T05:37:55;19.48;;;9.90;;
37593;SDS011;23441;50.856;6.076;2022-10-31T05:40:22;22.85;;;11.43;;
37593;SDS011;23441;50.856;6.076;2022-10-31T05:42:52;21.63;;;10.35;;
37593;SDS011;23441;50.856;6.076;2022-10-31T05:45:20;20.02;;;11.38;;
37593;SDS011;23441;50.856;6.076;2022-10-31T05:48:04;19.65;;;11.23;;
37593;SDS011;23441;50.856;6.076;2022-10-31T05:50:31;17.38;;;11.40;;
37593;SDS011;23441;50.856;6.076;2022-10-31T05:53:01;19.55;;;10.77;;
37593;SDS011;23441;50.856;6.076;2022-10-31T05:55:29;20.75;;;9.95;;
37593;SDS011;23441;50.856;6.076;2022-10-31T05:57:56;22.48;;;10.80;;
37593;SDS011;23441;50.856;6.076;2022-10-31T06:00:22;23.23;;;10.50;;
37593;SDS011;23441;50.856;6.076;2022-10-31T06:02:49;20.10;;;9.60;;
37593;SDS011;23441;50.856;6.076;2022-10-31T06:05:25;19.48;;;11.13;;
37593;SDS011;23441;50.856;6.076;2022-10-31T06:07:52;18.63;;;10.18;;
37593;SDS011;23441;50.856;6.076;2022-10-31T06:10:17;25.02;;;11.48;;
37593;SDS011;23441;50.856;6.076;2022-10-31T06:12:46;19.67;;;11.63;;
37593;SDS011;23441;50.856;6.076;2022-10-31T06:15:12;25.05;;;12.20;;
37593;SDS011;23441;50.856;6.076;2022-10-31T06:17:38;18.65;;;11.20;;
37593;SDS011;23441;50.856;6.076;2022-10-31T06:20:04;20.83;;;11.77;;
37593;SDS011;23441;50.856;6.076;2022-10-31T06:22:30;30.33;;;13.73;;
37593;SDS011;23441;50.856;6.076;2022-10-31T06:24:56;28.05;;;12.70;;
37593;SDS011;23441;50.856;6.076;2022-10-31T06:27:22;27.35;;;13.75;;
37593;SDS011;23441;50.856;6.076;2022-10-31T06:29:48;25.80;;;13.00;;
37593;SDS011;23441;50.856;6.076;2022-10-31T06:32:14;27.38;;;14.63;;
37593;SDS011;23441;50.856;6.076;2022-10-31T06:34:41;25.73;;;13.52;;
37593;SDS011;23441;50.856;6.076;2022-10-31T06:37:07;30.30;;;15.48;;
37593;SDS011;23441;50.856;6.076;2022-10-31T06:39:33;25.27;;;13.77;;
37593;SDS011;23441;50.856;6.076;2022-10-31T06:41:59;27.88;;;13.55;;
37593;SDS011;23441;50.856;6.076;2022-10-31T06:44:25;24.27;;;12.38;;
37593;SDS011;23441;50.856;6.076;2022-10-31T06:46:51;23.23;;;13.40;;
37593;SDS011;23441;50.856;6.076;2022-10-31T06:49:17;25.92;;;13.63;;
37593;SDS011;23441;50.856;6.076;2022-10-31T06:51:42;27.27;;;13.63;;
37593;SDS011;23441;50.856;6.076;2022-10-31T06:54:08;25.42;;;14.23;;
37593;SDS011;23441;50.856;6.076;2022-10-31T07:23:30;34.80;;;17.02;;
37593;SDS011;23441;50.856;6.076;2022-10-31T07:25:56;37.95;;;18.38;;
37593;SDS011;23441;50.856;6.076;2022-10-31T07:28:22;35.35;;;17.63;;
37593;SDS011;23441;50.856;6.076;2022-10-31T07:30:49;34.55;;;17.38;;
37593;SDS011;23441;50.856;6.076;2022-10-31T07:33:19;36.83;;;16.67;;
37593;SDS011;23441;50.856;6.076;2022-10-31T07:35:45;30.55;;;16.80;;
37593;SDS011;23441;50.856;6.076;2022-10-31T07:38:12;29.98;;;16.33;;
37593;SDS011;23441;50.856;6.076;2022-10-31T07:40:39;33.58;;;17.15;;
37593;SDS011;23441;50.856;6.076;2022-10-31T07:43:06;32.85;;;17.25;;
37593;SDS011;23441;50.856;6.076;2022-10-31T07:45:32;35.92;;;18.33;;
37593;SDS011;23441;50.856;6.076;2022-10-31T07:47:58;39.58;;;19.45;;
37593;SDS011;23441;50.856;6.076;2022-10-31T07:50:25;40.20;;;18.40;;
37593;SDS011;23441;50.856;6.076;2022-10-31T07:52:59;36.92;;;18.30;;
37593;SDS011;23441;50.856;6.076;2022-10-31T07:55:25;38.70;;;18.83;;
37593;SDS011;23441;50.856;6.076;2022-10-31T08:00:27;43.03;;;21.95;;
37593;SDS011;23441;50.856;6.076;2022-10-31T08:02:59;40.47;;;21.23;;
37593;SDS011;23441;50.856;6.076;2022-10-31T08:05:29;38.40;;;22.10;;
37593;SDS011;23441;50.856;6.076;2022-10-31T08:07:56;44.75;;;22.13;;
37593;SDS011;23441;50.856;6.076;2022-10-31T08:10:22;44.20;;;22.05;;
37593;SDS011;23441;50.856;6.076;2022-10-31T08:12:59;37.83;;;21.30;;
37593;SDS011;23441;50.856;6.076;2022-10-31T08:15:26;43.50;;;21.35;;
37593;SDS011;23441;50.856;6.076;2022-10-31T08:17:52;43.35;;;21.73;;
37593;SDS011;23441;50.856;6.076;2022-10-31T08:20:18;47.15;;;23.33;;
37593;SDS011;23441;50.856;6.076;2022-10-31T08:22:54;43.40;;;21.42;;
37593;SDS011;23441;50.856;6.076;2022-10-31T08:25:21;47.08;;;22.08;;
37593;SDS011;23441;50.856;6.076;2022-10-31T08:27:48;45.45;;;22.65;;
37593;SDS011;23441;50.856;6.076;2022-10-31T08:30:19;43.47;;;22.40;;
37593;SDS011;23441;50.856;6.076;2022-10-31T08:32:45;51.08;;;22.95;;
37593;SDS011;23441;50.856;6.076;2022-10-31T08:35:12;47.65;;;22.98;;
37593;SDS011;23441;50.856;6.076;2022-10-31T08:37:37;49.30;;;23.42;;
37593;SDS011;23441;50.856;6.076;2022-10-31T08:40:03;43.75;;;22.70;;
37593;SDS011;23441;50.856;6.076;2022-10-31T08:42:31;51.53;;;24.40;;
37593;SDS011;23441;50.856;6.076;2022-10-31T08:44:57;46.88;;;24.25;;
37593;SDS011;23441;50.856;6.076;2022-10-31T08:47:23;44.42;;;23.35;;
37593;SDS011;23441;50.856;6.076;2022-10-31T08:49:48;47.38;;;24.08;;
37593;SDS011;23441;50.856;6.076;2022-10-31T08:52:14;52.60;;;24.02;;
37593;SDS011;23441;50.856;6.076;2022-10-31T08:54:41;58.38;;;23.85;;
37593;SDS011;23441;50.856;6.076;2022-10-31T08:57:06;49.05;;;24.67;;
37593;SDS011;23441;50.856;6.076;2022-10-31T08:59:32;45.60;;;23.27;;
37593;SDS011;23441;50.856;6.076;2022-10-31T09:01:58;50.13;;;24.30;;
37593;SDS011;23441;50.856;6.076;2022-10-31T09:04:23;41.67;;;22.95;;
37593;SDS011;23441;50.856;6.076;2022-10-31T09:06:49;58.58;;;23.42;;
37593;SDS011;23441;50.856;6.076;2022-10-31T09:09:15;45.80;;;22.85;;
37593;SDS011;23441;50.856;6.076;2022-10-31T09:11:40;49.22;;;24.65;;
37593;SDS011;23441;50.856;6.076;2022-10-31T09:14:06;41.60;;;22.48;;
37593;SDS011;23441;50.856;6.076;2022-10-31T09:16:32;44.83;;;23.83;;
37593;SDS011;23441;50.856;6.076;2022-10-31T09:18:57;45.22;;;22.08;;
37593;SDS011;23441;50.856;6.076;2022-10-31T09:21:23;44.25;;;21.65;;
37593;SDS011;23441;50.856;6.076;2022-10-31T09:23:49;52.60;;;21.55;;
37593;SDS011;23441;50.856;6.076;2022-10-31T09:26:15;48.30;;;21.88;;
37593;SDS011;23441;50.856;6.076;2022-10-31T09:28:40;44.92;;;20.98;;
37593;SDS011;23441;50.856;6.076;2022-10-31T09:31:06;42.50;;;20.67;;
37593;SDS011;23441;50.856;6.076;2022-10-31T09:33:32;45.50;;;20.10;;
37593;SDS011;23441;50.856;6.076;2022-10-31T09:35:58;41.47;;;20.90;;
37593;SDS011;23441;50.856;6.076;2022-10-31T09:38:24;40.13;;;19.25;;
37593;SDS011;23441;50.856;6.076;2022-10-31T09:40:55;36.78;;;19.58;;
37593;SDS011;23441;50.856;6.076;2022-10-31T09:52:00;37.42;;;17.58;;
37593;SDS011;23441;50.856;6.076;2022-10-31T09:57:23;38.13;;;18.13;;
37593;SDS011;23441;50.856;6.076;2022-10-31T09:59:53;30.17;;;17.50;;
37593;SDS011;23441;50.856;6.076;2022-10-31T10:02:30;29.85;;;15.90;;
37593;SDS011;23441;50.856;6.076;2022-10-31T10:05:03;30.92;;;15.10;;
37593;SDS011;23441;50.856;6.076;2022-10-31T10:10:40;29.08;;;15.63;;
37593;SDS011;23441;50.856;6.076;2022-10-31T10:19:21;27.23;;;14.68;;
37593;SDS011;23441;50.856;6.076;2022-10-31T10:22:52;31.05;;;14.48;;
37593;SDS011;23441;50.856;6.076;2022-10-31T10:25:31;30.60;;;13.55;;
37593;SDS011;23441;50.856;6.076;2022-10-31T10:33:10;40.28;;;14.68;;
37593;SDS011;23441;50.856;6.076;2022-10-31T10:35:39;24.67;;;12.45;;
37593;SDS011;23441;50.856;6.076;2022-10-31T10:40:50;24.95;;;13.50;;
37593;SDS011;23441;50.856;6.076;2022-10-31T10:43:22;26.98;;;12.75;;
37593;SDS011;23441;50.856;6.076;2022-10-31T10:48:45;22.75;;;12.80;;
37593;SDS011;23441;50.856;6.076;2022-10-31T10:51:23;25.90;;;13.02;;
37593;SDS011;23441;50.856;6.076;2022-10-31T10:53:59;23.08;;;13.25;;
37593;SDS011;23441;50.856;6.076;2022-10-31T10:59:09;24.65;;;11.57;;
37593;SDS011;23441;50.856;6.076;2022-10-31T11:01:38;27.73;;;11.90;;
37593;SDS011;23441;50.856;6.076;2022-10-31T11:04:24;27.02;;;11.68;;
37593;SDS011;23441;50.856;6.076;2022-10-31T11:07:06;18.20;;;10.85;;
37593;SDS011;23441;50.856;6.076;2022-10-31T11:09:33;26.88;;;11.90;;
37593;SDS011;23441;50.856;6.076;2022-10-31T11:12:00;28.65;;;12.38;;
37593;SDS011;23441;50.856;6.076;2022-10-31T11:14:37;21.20;;;11.32;;
37593;SDS011;23441;50.856;6.076;2022-10-31T11:17:20;21.88;;;10.35;;
37593;SDS011;23441;50.856;6.076;2022-10-31T11:20:02;19.33;;;9.77;;
37593;SDS011;23441;50.856;6.076;2022-10-31T11:22:37;20.48;;;9.77;;
37593;SDS011;23441;50.856;6.076;2022-10-31T11:27:44;25.73;;;9.80;;
37593;SDS011;23441;50.856;6.076;2022-10-31T11:30:23;19.55;;;8.98;;
37593;SDS011;23441;50.856;6.076;2022-10-31T11:32:49;15.13;;;8.90;;
37593;SDS011;23441;50.856;6.076;2022-10-31T11:35:18;19.67;;;8.80;;
37593;SDS011;23441;50.856;6.076;2022-10-31T11:37:46;15.38;;;8.55;;
37593;SDS011;23441;50.856;6.076;2022-10-31T11:40:14;19.17;;;8.02;;
37593;SDS011;23441;50.856;6.076;2022-10-31T11:42:42;14.93;;;7.70;;
37593;SDS011;23441;50.856;6.076;2022-10-31T11:45:19;19.70;;;8.27;;
37593;SDS011;23441;50.856;6.076;2022-10-31T11:47:59;19.00;;;8.38;;
37593;SDS011;23441;50.856;6.076;2022-10-31T11:52:55;18.85;;;8.18;;
37593;SDS011;23441;50.856;6.076;2022-10-31T11:55:31;19.52;;;8.38;;
37593;SDS011;23441;50.856;6.076;2022-10-31T11:57:59;25.67;;;8.98;;
37593;SDS011;23441;50.856;6.076;2022-10-31T12:00:36;15.23;;;7.82;;
37593;SDS011;23441;50.856;6.076;2022-10-31T12:05:41;18.58;;;8.25;;
37593;SDS011;23441;50.856;6.076;2022-10-31T12:08:10;14.95;;;7.43;;
37593;SDS011;23441;50.856;6.076;2022-10-31T12:10:41;25.58;;;8.45;;
37593;SDS011;23441;50.856;6.076;2022-10-31T12:13:55;13.73;;;7.30;;
37593;SDS011;23441;50.856;6.076;2022-10-31T12:16:15;17.30;;;6.63;;
37593;SDS011;23441;50.856;6.076;2022-10-31T12:18:53;15.35;;;6.55;;
37593;SDS011;23441;50.856;6.076;2022-10-31T12:27:17;16.13;;;6.00;;
37593;SDS011;23441;50.856;6.076;2022-10-31T12:29:58;12.50;;;5.38;;
37593;SDS011;23441;50.856;6.076;2022-10-31T12:35:47;18.23;;;6.05;;
37593;SDS011;23441;50.856;6.076;2022-10-31T12:43:46;17.33;;;6.53;;
37593;SDS011;23441;50.856;6.076;2022-10-31T12:46:22;22.67;;;7.18;;
37593;SDS011;23441;50.856;6.076;2022-10-31T12:52:10;15.18;;;5.55;;
37593;SDS011;23441;50.856;6.076;2022-10-31T12:59:53;12.90;;;6.15;;
37593;SDS011;23441;50.856;6.076;2022-10-31T13:03:14;10.80;;;5.15;;
37593;SDS011;23441;50.856;6.076;2022-10-31T13:05:27;17.90;;;6.80;;
37593;SDS011;23441;50.856;6.076;2022-10-31T13:08:17;17.08;;;6.28;;
37593;SDS011;23441;50.856;6.076;2022-10-31T13:11:22;19.95;;;6.22;;
37593;SDS011;23441;50.856;6.076;2022-10-31T13:13:57;14.45;;;5.88;;
37593;SDS011;23441;50.856;6.076;2022-10-31T13:16:45;11.57;;;5.22;;
37593;SDS011;23441;50.856;6.076;2022-10-31T13:24:27;17.13;;;6.35;;
37593;SDS011;23441;50.856;6.076;2022-10-31T13:26:59;13.13;;;6.15;;
37593;SDS011;23441;50.856;6.076;2022-10-31T13:29:39;12.88;;;6.25;;
37593;SDS011;23441;50.856;6.076;2022-10-31T13:32:10;13.45;;;6.10;;
37593;SDS011;23441;50.856;6.076;2022-10-31T13:34:37;15.05;;;7.25;;
37593;SDS011;23441;50.856;6.076;2022-10-31T13:42:48;16.35;;;7.00;;
37593;SDS011;23441;50.856;6.076;2022-10-31T13:45:21;13.43;;;6.70;;
37593;SDS011;23441;50.856;6.076;2022-10-31T13:47:56;15.75;;;7.03;;
37593;SDS011;23441;50.856;6.076;2022-10-31T13:50:27;19.55;;;7.05;;
37593;SDS011;23441;50.856;6.076;2022-10-31T13:55:44;13.45;;;6.60;;
37593;SDS011;23441;50.856;6.076;2022-10-31T13:58:25;14.05;;;6.47;;
37593;SDS011;23441;50.856;6.076;2022-10-31T14:03:24;13.85;;;6.22;;
37593;SDS011;23441;50.856;6.076;2022-10-31T14:05:53;18.40;;;6.55;;
37593;SDS011;23441;50.856;6.076;2022-10-31T14:08:21;12.52;;;5.85;;
37593;SDS011;23441;50.856;6.076;2022-10-31T14:10:53;15.27;;;6.43;;
37593;SDS011;23441;50.856;6.076;2022-10-31T14:13:24;17.83;;;6.50;;
37593;SDS011;23441;50.856;6.076;2022-10-31T14:16:16;15.18;;;6.85;;
37593;SDS011;23441;50.856;6.076;2022-10-31T14:18:50;11.73;;;6.25;;
37593;SDS011;23441;50.856;6.076;2022-10-31T14:23:49;16.55;;;5.95;;
37593;SDS011;23441;50.856;6.076;2022-10-31T14:29:41;20.98;;;6.65;;
37593;SDS011;23441;50.856;6.076;2022-10-31T14:31:42;15.23;;;5.85;;
37593;SDS011;23441;50.856;6.076;2022-10-31T14:36:46;14.38;;;6.22;;
37593;SDS011;23441;50.856;6.076;2022-10-31T14:47:46;14.13;;;6.47;;
37593;SDS011;23441;50.856;6.076;2022-10-31T14:52:59;14.80;;;6.25;;
37593;SDS011;23441;50.856;6.076;2022-10-31T14:55:28;19.05;;;5.95;;
37593;SDS011;23441;50.856;6.076;2022-10-31T14:58:00;13.05;;;5.78;;
37593;SDS011;23441;50.856;6.076;2022-10-31T15:00:29;14.60;;;5.88;;
37593;SDS011;23441;50.856;6.076;2022-10-31T15:05:34;16.75;;;5.63;;
37593;SDS011;23441;50.856;6.076;2022-10-31T15:08:26;16.17;;;6.03;;
37593;SDS011;23441;50.856;6.076;2022-10-31T15:10:58;15.02;;;5.50;;
37593;SDS011;23441;50.856;6.076;2022-10-31T15:13:27;16.33;;;5.72;;
37593;SDS011;23441;50.856;6.076;2022-10-31T15:15:54;14.27;;;6.20;;
37593;SDS011;23441;50.856;6.076;2022-10-31T15:18:24;11.48;;;5.70;;
37593;SDS011;23441;50.856;6.076;2022-10-31T15:20:51;18.00;;;6.85;;
37593;SDS011;23441;50.856;6.076;2022-10-31T15:23:24;13.35;;;6.05;;
37593;SDS011;23441;50.856;6.076;2022-10-31T15:25:58;12.30;;;5.50;;
37593;SDS011;23441;50.856;6.076;2022-10-31T15:28:25;13.35;;;5.93;;
37593;SDS011;23441;50.856;6.076;2022-10-31T15:30:52;13.85;;;5.90;;
37593;SDS011;23441;50.856;6.076;2022-10-31T15:33:29;13.15;;;6.00;;
37593;SDS011;23441;50.856;6.076;2022-10-31T15:35:58;15.73;;;5.72;;
37593;SDS011;23441;50.856;6.076;2022-10-31T15:38:25;16.35;;;5.55;;
37593;SDS011;23441;50.856;6.076;2022-10-31T15:40:56;16.48;;;5.55;;
37593;SDS011;23441;50.856;6.076;2022-10-31T15:43:43;15.02;;;5.38;;
37593;SDS011;23441;50.856;6.076;2022-10-31T15:46:10;14.35;;;5.68;;
37593;SDS011;23441;50.856;6.076;2022-10-31T15:48:36;15.10;;;5.82;;
37593;SDS011;23441;50.856;6.076;2022-10-31T15:51:03;12.73;;;5.32;;
37593;SDS011;23441;50.856;6.076;2022-10-31T15:53:37;13.05;;;5.85;;
37593;SDS011;23441;50.856;6.076;2022-10-31T15:56:11;20.10;;;5.60;;
37593;SDS011;23441;50.856;6.076;2022-10-31T15:58:41;9.98;;;5.13;;
37593;SDS011;23441;50.856;6.076;2022-10-31T16:01:20;18.13;;;6.20;;
37593;SDS011;23441;50.856;6.076;2022-10-31T16:03:56;13.00;;;5.70;;
37593;SDS011;23441;50.856;6.076;2022-10-31T16:06:23;25.45;;;5.78;;
37593;SDS011;23441;50.856;6.076;2022-10-31T16:08:49;9.80;;;5.80;;
37593;SDS011;23441;50.856;6.076;2022-10-31T16:11:23;14.15;;;6.13;;
37593;SDS011;23441;50.856;6.076;2022-10-31T16:16:44;18.10;;;7.10;;
37593;SDS011;23441;50.856;6.076;2022-10-31T16:19:17;17.60;;;7.25;;
37593;SDS011;23441;50.856;6.076;2022-10-31T16:21:47;12.90;;;6.47;;
37593;SDS011;23441;50.856;6.076;2022-10-31T16:26:50;14.32;;;6.28;;
37593;SDS011;23441;50.856;6.076;2022-10-31T16:29:31;15.30;;;6.30;;
37593;SDS011;23441;50.856;6.076;2022-10-31T16:31:59;16.80;;;7.30;;
37593;SDS011;23441;50.856;6.076;2022-10-31T16:34:25;17.38;;;6.63;;
37593;SDS011;23441;50.856;6.076;2022-10-31T16:36:51;16.98;;;7.07;;
37593;SDS011;23441;50.856;6.076;2022-10-31T16:39:17;16.02;;;6.75;;
37593;SDS011;23441;50.856;6.076;2022-10-31T16:41:44;18.73;;;7.57;;
37593;SDS011;23441;50.856;6.076;2022-10-31T16:44:16;19.30;;;7.25;;
37593;SDS011;23441;50.856;6.076;2022-10-31T16:46:44;15.73;;;6.40;;
37593;SDS011;23441;50.856;6.076;2022-10-31T16:49:10;17.17;;;7.03;;
37593;SDS011;23441;50.856;6.076;2022-10-31T16:51:36;12.32;;;6.40;;
37593;SDS011;23441;50.856;6.076;2022-10-31T16:54:02;14.93;;;7.05;;
37593;SDS011;23441;50.856;6.076;2022-10-31T16:56:28;15.98;;;5.82;;
37593;SDS011;23441;50.856;6.076;2022-10-31T16:58:56;13.20;;;5.70;;
37593;SDS011;23441;50.856;6.076;2022-10-31T17:01:23;12.27;;;6.00;;
37593;SDS011;23441;50.856;6.076;2022-10-31T17:03:49;10.80;;;4.93;;
37593;SDS011;23441;50.856;6.076;2022-10-31T17:06:15;12.32;;;5.18;;
37593;SDS011;23441;50.856;6.076;2022-10-31T17:08:41;15.27;;;5.15;;
37593;SDS011;23441;50.856;6.076;2022-10-31T17:11:08;11.95;;;5.13;;
37593;SDS011;23441;50.856;6.076;2022-10-31T17:13:45;14.27;;;5.40;;
37593;SDS011;23441;50.856;6.076;2022-10-31T17:16:11;11.40;;;5.25;;
37593;SDS011;23441;50.856;6.076;2022-10-31T17:18:39;14.43;;;5.57;;
37593;SDS011;23441;50.856;6.076;2022-10-31T17:21:05;11.85;;;4.70;;
37593;SDS011;23441;50.856;6.076;2022-10-31T17:23:31;10.75;;;4.93;;
37593;SDS011;23441;50.856;6.076;2022-10-31T17:25:57;16.15;;;5.07;;
37593;SDS011;23441;50.856;6.076;2022-10-31T17:28:23;11.73;;;4.95;;
37593;SDS011;23441;50.856;6.076;2022-10-31T17:30:50;11.75;;;4.07;;
37593;SDS011;23441;50.856;6.076;2022-10-31T17:33:19;11.32;;;4.20;;
37593;SDS011;23441;50.856;6.076;2022-10-31T17:35:44;11.80;;;3.70;;
37593;SDS011;23441;50.856;6.076;2022-10-31T17:38:10;8.70;;;3.75;;
37593;SDS011;23441;50.856;6.076;2022-10-31T17:40:37;8.88;;;4.15;;